createdAt,value
2023-04-18T00:01:21.457Z,100203.34
2023-04-18T00:03:52.780Z,100196.53
2023-04-18T00:06:22.232Z,100193.00
2023-04-18T00:08:50.172Z,100200.22
2023-04-18T00:11:17.751Z,100196.19
2023-04-18T00:13:47.365Z,100201.94
2023-04-18T00:16:15.526Z,100192.44
2023-04-18T00:18:43.106Z,100204.41
2023-04-18T00:21:10.718Z,100202.72
2023-04-18T00:23:38.611Z,100204.41
2023-04-18T00:26:06.150Z,100202.16
2023-04-18T00:28:33.693Z,100207.50
2023-04-18T00:31:01.518Z,100215.12
2023-04-18T00:33:32.102Z,100223.69
2023-04-18T00:35:59.547Z,100213.66
2023-04-18T00:38:27.348Z,100222.12
2023-04-18T00:40:55.017Z,100221.03
2023-04-18T00:43:24.016Z,100226.13
2023-04-18T00:45:52.301Z,100217.19
2023-04-18T00:48:23.544Z,100217.88
2023-04-18T00:50:51.659Z,100222.25
2023-04-18T00:53:19.612Z,100221.34
2023-04-18T00:55:47.601Z,100217.88
2023-04-18T00:58:15.243Z,100214.34
2023-04-18T01:00:43.042Z,100226.97
2023-04-18T01:03:14.453Z,100220.00
2023-04-18T01:05:42.192Z,100219.22
2023-04-18T01:08:10.708Z,100220.75
2023-04-18T01:10:38.260Z,100212.28
2023-04-18T01:13:31.887Z,100216.69
2023-04-18T01:15:59.714Z,100213.75
2023-04-18T01:18:27.399Z,100217.75
2023-04-18T01:20:56.956Z,100218.97
2023-04-18T01:23:24.904Z,100216.50
2023-04-18T01:25:52.396Z,100219.41
2023-04-18T01:28:24.498Z,100208.47
2023-04-18T01:30:52.340Z,100213.47
2023-04-18T01:33:19.930Z,100214.94
2023-04-18T01:35:47.716Z,100223.94
2023-04-18T01:38:15.473Z,100214.41
2023-04-18T01:40:42.972Z,100220.37
2023-04-18T01:43:10.420Z,100214.94
2023-04-18T01:45:38.471Z,100216.53
2023-04-18T01:48:06.363Z,100213.59
2023-04-18T01:50:33.956Z,100207.09
2023-04-18T01:53:01.692Z,100208.22
2023-04-18T01:55:29.125Z,100207.88
2023-04-18T01:57:56.531Z,100213.00
2023-04-18T02:00:24.375Z,100210.63
2023-04-18T02:02:51.873Z,100209.34
2023-04-18T02:05:21.447Z,100208.50
2023-04-18T02:07:50.303Z,100208.50
2023-04-18T02:10:18.706Z,100210.84
2023-04-18T02:12:46.603Z,100208.50
2023-04-18T02:15:14.156Z,100219.69
2023-04-18T02:17:42.251Z,100222.28
2023-04-18T02:20:10.886Z,100219.41
2023-04-18T02:22:39.496Z,100219.41
2023-04-18T02:25:07.558Z,100223.69
2023-04-18T02:27:35.153Z,100224.63
2023-04-18T02:30:03.061Z,100223.84
2023-04-18T02:32:34.265Z,100236.59
2023-04-18T02:35:01.863Z,100232.69
2023-04-18T02:37:29.346Z,100232.84
2023-04-18T02:39:57.241Z,100236.44
2023-04-18T02:42:24.748Z,100229.38
2023-04-18T02:44:52.251Z,100232.84
2023-04-18T02:47:19.985Z,100229.28
2023-04-18T02:49:47.538Z,100232.78
2023-04-18T02:52:15.793Z,100237.78
2023-04-18T02:54:43.498Z,100230.47
2023-04-18T02:57:11.270Z,100238.38
2023-04-18T02:59:39.292Z,100239.06
2023-04-18T03:02:08.418Z,100232.94
2023-04-18T03:04:36.563Z,100239.22
2023-04-18T03:07:04.229Z,100249.69
2023-04-18T03:09:32.428Z,100251.91
2023-04-18T03:12:02.361Z,100241.44
2023-04-18T03:14:30.056Z,100248.22
2023-04-18T03:16:57.815Z,100262.25
2023-04-18T03:19:25.978Z,100252.38
2023-04-18T03:21:53.671Z,100249.28
2023-04-18T03:24:23.010Z,100249.28
2023-04-18T03:26:51.083Z,100251.28
2023-04-18T03:29:19.458Z,100251.91
2023-04-18T03:31:47.731Z,100253.84
2023-04-18T03:34:15.622Z,100255.78
2023-04-18T03:36:45.883Z,100251.03
2023-04-18T03:39:15.023Z,100252.78
2023-04-18T03:41:42.559Z,100253.06
2023-04-18T03:44:10.911Z,100255.00
2023-04-18T03:46:40.745Z,100253.00
2023-04-18T03:49:08.723Z,100263.94
2023-04-18T03:51:49.153Z,100258.41
2023-04-18T03:54:17.435Z,100263.16
2023-04-18T03:56:45.320Z,100262.88
2023-04-18T03:59:13.798Z,100261.72
2023-04-18T04:01:42.101Z,100253.66
2023-04-18T04:04:12.153Z,100261.13
2023-04-18T04:06:40.093Z,100268.34
2023-04-18T04:09:07.919Z,100270.63
2023-04-18T04:11:36.048Z,100264.78
2023-04-18T04:14:04.101Z,100277.41
2023-04-18T04:16:32.070Z,100280.66
2023-04-18T04:19:00.673Z,100290.84
2023-04-18T04:21:31.396Z,100290.16
2023-04-18T04:23:59.108Z,100294.41
2023-04-18T04:26:27.721Z,100297.09
2023-04-18T04:28:57.301Z,100293.97
2023-04-18T04:31:25.395Z,100296.66
2023-04-18T04:33:53.201Z,100294.47
2023-04-18T04:36:23.029Z,100304.00
2023-04-18T04:38:52.260Z,100298.84
2023-04-18T04:41:22.437Z,100304.09
2023-04-18T04:43:51.287Z,100306.47
2023-04-18T04:46:20.124Z,100313.03
2023-04-18T04:48:49.771Z,100301.13
2023-04-18T04:51:17.243Z,100313.97
2023-04-18T04:53:44.751Z,100321.69
2023-04-18T04:56:13.475Z,100316.59
2023-04-18T04:58:41.114Z,100310.63
2023-04-18T05:01:09.277Z,100318.78
2023-04-18T05:03:57.211Z,100318.97
2023-04-18T05:06:25.094Z,100315.88
2023-04-18T05:08:53.117Z,100320.50
2023-04-18T05:11:21.084Z,100323.28
2023-04-18T05:13:48.714Z,100318.81
2023-04-18T05:16:16.629Z,100311.31
2023-04-18T05:18:44.467Z,100320.81
2023-04-18T05:21:12.173Z,100322.75
2023-04-18T05:23:40.530Z,100325.22
2023-04-18T05:26:08.080Z,100322.97
2023-04-18T05:28:35.890Z,100328.25
2023-04-18T05:31:03.758Z,100325.88
2023-04-18T05:33:31.765Z,100319.91
2023-04-18T05:35:59.458Z,100335.28
2023-04-18T05:38:27.399Z,100337.56
2023-04-18T05:40:55.831Z,100345.00
2023-04-18T05:43:23.537Z,100349.53
2023-04-18T05:45:52.627Z,100356.00
2023-04-18T05:48:22.876Z,100350.03
2023-04-18T05:50:50.408Z,100346.47
2023-04-18T05:53:18.161Z,100345.47
2023-04-18T05:55:49.084Z,100350.72
2023-04-18T05:58:17.032Z,100349.25
2023-04-18T06:00:45.135Z,100354.25
2023-04-18T06:03:13.434Z,100354.78
2023-04-18T06:05:41.373Z,100349.25
2023-04-18T06:08:08.943Z,100360.00
2023-04-18T06:10:39.002Z,100356.94
2023-04-18T06:13:07.027Z,100354.59
2023-04-18T06:15:34.929Z,100360.88
2023-04-18T06:18:02.860Z,100347.62
2023-04-18T06:20:31.306Z,100361.19
2023-04-18T06:22:59.607Z,100351.78
2023-04-18T06:25:27.792Z,100349.47
2023-04-18T06:27:55.650Z,100354.75
2023-04-18T06:30:23.585Z,100354.91
2023-04-18T06:32:51.467Z,100361.88
2023-04-18T06:35:19.025Z,100370.03
2023-04-18T06:37:46.605Z,100363.25
2023-04-18T06:40:14.556Z,100360.88
2023-04-18T06:42:42.709Z,100367.81
2023-04-18T06:45:11.978Z,100366.72
2023-04-18T06:47:40.614Z,100370.31
2023-04-18T06:50:09.114Z,100383.91
2023-04-18T06:52:40.594Z,100377.69
2023-04-18T06:55:09.305Z,100374.06
2023-04-18T06:57:37.799Z,100381.12
2023-04-18T07:00:05.971Z,100388.84
2023-04-18T07:02:36.269Z,100389.34
2023-04-18T07:05:04.236Z,100394.38
2023-04-18T07:07:33.686Z,100388.84
2023-04-18T07:10:02.302Z,100391.66
2023-04-18T07:12:29.936Z,100388.66
2023-04-18T07:14:57.582Z,100388.66
2023-04-18T07:17:26.392Z,100386.28
2023-04-18T07:19:53.942Z,100394.78
2023-04-18T07:22:21.460Z,100393.63
2023-04-18T07:24:49.425Z,100393.34
2023-04-18T07:27:17.001Z,100403.09
2023-04-18T07:29:44.574Z,100394.06
2023-04-18T07:32:12.555Z,100409.50
2023-04-18T07:34:43.506Z,100415.41
2023-04-18T07:37:14.678Z,100412.03
2023-04-18T07:39:42.786Z,100411.22
2023-04-18T07:42:11.425Z,100415.69
2023-04-18T07:44:39.030Z,100426.25
2023-04-18T07:47:11.264Z,100425.94
2023-04-18T07:49:38.995Z,100436.38
2023-04-18T07:52:07.215Z,100431.81
2023-04-18T07:54:34.849Z,100435.78
2023-04-18T07:57:02.436Z,100443.94
2023-04-18T07:59:32.165Z,100445.44
2023-04-18T08:01:59.848Z,100450.94
2023-04-18T08:04:29.975Z,100436.78
2023-04-18T08:06:58.110Z,100452.94
2023-04-18T08:09:25.777Z,100456.78
2023-04-18T08:11:55.247Z,100464.59
2023-04-18T08:14:23.053Z,100459.84
2023-04-18T08:16:50.533Z,100459.00
2023-04-18T08:19:18.506Z,100454.56
2023-04-18T08:21:46.748Z,100465.72
2023-04-18T08:24:14.880Z,100455.62
2023-04-18T08:26:42.743Z,100455.84
2023-04-18T08:29:10.516Z,100451.75
2023-04-18T08:31:39.109Z,100454.13
2023-04-18T08:34:07.154Z,100453.25
2023-04-18T08:36:35.553Z,100457.16
2023-04-18T08:39:03.472Z,100458.00
2023-04-18T08:41:37.727Z,100453.41
2023-04-18T08:44:06.629Z,100455.88
2023-04-18T08:46:35.871Z,100457.78
2023-04-18T08:49:06.682Z,100466.25
2023-04-18T08:51:34.731Z,100462.47
2023-04-18T08:54:03.220Z,100463.78
2023-04-18T08:56:31.714Z,100467.44
2023-04-18T08:59:00.465Z,100458.38
2023-04-18T09:01:51.108Z,100465.94
2023-04-18T09:04:43.252Z,100476.34
2023-04-18T09:07:15.979Z,100472.72
2023-04-18T09:09:45.562Z,100459.91
2023-04-18T09:12:22.557Z,100465.28
2023-04-18T09:14:57.746Z,100468.75
2023-04-18T09:17:38.383Z,100476.72
2023-04-18T09:20:10.567Z,100472.56
2023-04-18T09:22:48.065Z,100477.00
2023-04-18T09:25:34.381Z,100478.03
2023-04-18T09:28:02.781Z,100477.56
2023-04-18T09:30:37.972Z,100486.44
2023-04-18T09:33:09.477Z,100474.87
2023-04-18T09:35:37.972Z,100475.25
2023-04-18T09:38:08.047Z,100471.72
2023-04-18T09:40:35.699Z,100476.31
2023-04-18T09:43:20.900Z,100476.03
2023-04-18T09:45:49.109Z,100475.44
2023-04-18T09:48:17.082Z,100480.31
2023-04-18T09:50:45.229Z,100473.31
2023-04-18T09:53:15.139Z,100474.34
2023-04-18T09:55:43.466Z,100467.63
2023-04-18T09:58:11.464Z,100479.16
2023-04-18T10:00:39.606Z,100480.56
2023-04-18T10:03:09.758Z,100477.63
2023-04-18T10:05:39.857Z,100479.69
2023-04-18T10:08:08.303Z,100488.19
2023-04-18T10:10:38.526Z,100488.53
2023-04-18T10:13:08.567Z,100489.41
2023-04-18T10:15:37.682Z,100488.09
2023-04-18T10:18:15.662Z,100488.66
2023-04-18T10:20:44.530Z,100483.94
2023-04-18T10:23:30.906Z,100485.59
2023-04-18T10:25:59.169Z,100495.06
2023-04-18T10:28:28.132Z,100493.75
2023-04-18T10:31:03.652Z,100491.72
2023-04-18T10:33:34.380Z,100490.38
2023-04-18T10:36:21.392Z,100490.38
2023-04-18T10:38:53.405Z,100493.63
2023-04-18T10:41:25.631Z,100488.22
2023-04-18T10:44:09.147Z,100480.47
2023-04-18T10:46:38.557Z,100493.69
2023-04-18T10:49:13.294Z,100493.50
2023-04-18T10:51:41.908Z,100501.06
2023-04-18T10:54:13.672Z,100495.38
2023-04-18T10:56:52.127Z,100492.75
2023-04-18T10:59:22.772Z,100491.97
2023-04-18T11:02:27.008Z,100497.81
2023-04-18T11:04:58.917Z,100494.31
2023-04-18T11:07:59.966Z,100490.06
2023-04-18T11:10:57.390Z,100490.00
2023-04-18T11:13:37.974Z,100488.59
2023-04-18T11:16:49.283Z,100490.28
2023-04-18T11:19:21.822Z,100490.44
2023-04-18T11:21:53.889Z,100504.06
2023-04-18T11:24:24.076Z,100493.09
2023-04-18T11:26:55.877Z,100499.03
2023-04-18T11:29:23.900Z,100500.16
2023-04-18T11:31:55.224Z,100500.44
2023-04-18T11:34:30.603Z,100504.41
2023-04-18T11:36:58.874Z,100499.38
2023-04-18T11:39:26.446Z,100495.72
2023-04-18T11:41:56.353Z,100500.34
2023-04-18T11:44:25.658Z,100496.78
2023-04-18T11:46:53.848Z,100500.12
2023-04-18T11:49:39.622Z,100495.09
2023-04-18T11:52:13.896Z,100485.56
2023-04-18T11:54:43.722Z,100488.31
2023-04-18T11:57:27.894Z,100475.72
2023-04-18T11:59:57.417Z,100481.78
2023-04-18T12:02:27.651Z,100494.25
2023-04-18T12:04:57.624Z,100485.03
2023-04-18T12:07:36.437Z,100479.31
2023-04-18T12:10:06.412Z,100484.31
2023-04-18T12:12:34.600Z,100477.81
2023-04-18T12:15:04.576Z,100479.88
2023-04-18T12:17:32.722Z,100477.50
2023-04-18T12:20:04.914Z,100486.06
2023-04-18T12:22:42.182Z,100474.78
2023-04-18T12:25:26.650Z,100476.50
2023-04-18T12:28:05.984Z,100474.34
2023-04-18T12:30:37.446Z,100474.37
2023-04-18T12:33:06.682Z,100472.47
2023-04-18T12:35:34.364Z,100460.06
2023-04-18T12:38:13.765Z,100469.25
2023-04-18T12:40:44.388Z,100466.63
2023-04-18T12:43:12.309Z,100470.25
2023-04-18T12:45:39.820Z,100462.50
2023-04-18T12:48:08.106Z,100457.97
2023-04-18T12:50:35.622Z,100460.09
2023-04-18T12:53:03.715Z,100459.09
2023-04-18T12:55:31.970Z,100463.59
2023-04-18T12:58:00.104Z,100456.50
2023-04-18T13:00:30.413Z,100445.81
2023-04-18T13:02:58.907Z,100455.16
2023-04-18T13:05:29.803Z,100448.75
2023-04-18T13:08:15.345Z,100447.44
2023-04-18T13:10:44.159Z,100451.50
2023-04-18T13:13:11.925Z,100442.50
2023-04-18T13:15:39.552Z,100451.78
2023-04-18T13:18:07.784Z,100445.53
2023-04-18T13:20:36.586Z,100442.66
2023-04-18T13:23:04.194Z,100441.00
2023-04-18T13:25:39.794Z,100440.06
2023-04-18T13:28:23.922Z,100437.84
2023-04-18T13:30:56.550Z,100443.91
2023-04-18T13:33:29.901Z,100446.34
2023-04-18T13:36:02.341Z,100442.28
2023-04-18T13:38:30.733Z,100446.56
2023-04-18T13:41:12.257Z,100447.00
2023-04-18T13:43:43.854Z,100446.09
2023-04-18T13:46:12.577Z,100446.78
2023-04-18T13:48:40.731Z,100450.37
2023-04-18T13:51:08.910Z,100455.25
2023-04-18T13:53:37.001Z,100446.78
2023-04-18T13:56:07.972Z,100446.06
2023-04-18T13:58:37.318Z,100448.88
2023-04-18T14:01:05.317Z,100433.72
2023-04-18T14:03:35.328Z,100449.25
2023-04-18T14:06:05.070Z,100443.53
2023-04-18T14:08:33.735Z,100447.47
2023-04-18T14:11:01.961Z,100445.44
2023-04-18T14:13:30.542Z,100442.72
2023-04-18T14:16:00.328Z,100441.47
2023-04-18T14:18:28.692Z,100442.72
2023-04-18T14:20:56.466Z,100442.62
2023-04-18T14:23:35.512Z,100452.44
2023-04-18T14:26:03.025Z,100449.53
2023-04-18T14:28:31.116Z,100444.56
2023-04-18T14:31:02.070Z,100448.34
2023-04-18T14:33:29.755Z,100438.56
2023-04-18T14:35:57.502Z,100453.41
2023-04-18T14:38:25.120Z,100452.62
2023-04-18T14:40:52.809Z,100438.75
2023-04-18T14:43:21.058Z,100445.19
2023-04-18T14:45:48.751Z,100441.50
2023-04-18T14:48:16.393Z,100447.69
2023-04-18T14:50:44.474Z,100435.88
2023-04-18T14:53:12.108Z,100437.91
2023-04-18T14:55:39.840Z,100437.13
2023-04-18T14:58:07.609Z,100436.22
2023-04-18T15:00:35.497Z,100439.53
2023-04-18T15:03:03.802Z,100432.41
2023-04-18T15:05:32.120Z,100428.62
2023-04-18T15:07:59.657Z,100439.66
2023-04-18T15:10:27.326Z,100426.75
2023-04-18T15:12:55.185Z,100424.41
2023-04-18T15:15:22.752Z,100421.75
2023-04-18T15:17:50.313Z,100423.84
2023-04-18T15:20:18.114Z,100426.19
2023-04-18T15:22:45.722Z,100424.09
2023-04-18T15:25:16.351Z,100432.50
2023-04-18T15:27:44.133Z,100426.47
2023-04-18T15:30:12.198Z,100420.34
2023-04-18T15:32:44.126Z,100430.91
2023-04-18T15:35:12.216Z,100425.50
2023-04-18T15:37:39.736Z,100426.00
2023-04-18T15:40:10.384Z,100431.72
2023-04-18T15:42:39.256Z,100438.34
2023-04-18T15:45:07.957Z,100431.19
2023-04-18T15:47:35.502Z,100430.09
2023-04-18T15:50:03.815Z,100434.66
2023-04-18T15:52:31.427Z,100427.78
2023-04-18T15:54:58.945Z,100426.44
2023-04-18T15:57:26.888Z,100424.91
2023-04-18T15:59:54.412Z,100433.16
2023-04-18T16:02:22.023Z,100418.16
2023-04-18T16:04:49.842Z,100421.50
2023-04-18T16:07:17.356Z,100413.34
2023-04-18T16:09:44.880Z,100417.16
2023-04-18T16:12:12.723Z,100409.94
2023-04-18T16:14:40.230Z,100420.84
2023-04-18T16:17:07.645Z,100424.97
2023-04-18T16:19:38.288Z,100422.31
2023-04-18T16:22:07.154Z,100418.03
2023-04-18T16:24:35.043Z,100425.12
2023-04-18T16:27:02.788Z,100427.50
2023-04-18T16:29:30.501Z,100426.03
2023-04-18T16:31:58.221Z,100428.94
2023-04-18T16:34:25.966Z,100424.41
2023-04-18T16:36:55.542Z,100431.41
2023-04-18T16:39:31.780Z,100428.19
2023-04-18T16:41:59.580Z,100428.00
2023-04-18T16:44:27.335Z,100423.09
2023-04-18T16:46:54.808Z,100424.88
2023-04-18T16:49:23.650Z,100428.75
2023-04-18T16:51:51.381Z,100430.28
2023-04-18T16:54:18.881Z,100424.47
2023-04-18T16:56:46.419Z,100427.44
2023-04-18T16:59:14.555Z,100417.50
2023-04-18T17:01:42.588Z,100430.41
2023-04-18T17:04:10.275Z,100433.63
2023-04-18T17:06:37.985Z,100432.50
2023-04-18T17:09:06.407Z,100436.03
2023-04-18T17:11:39.564Z,100437.69
2023-04-18T17:14:08.656Z,100431.28
2023-04-18T17:16:40.464Z,100438.78
2023-04-18T17:19:09.356Z,100440.94
2023-04-18T17:21:37.714Z,100441.63
2023-04-18T17:24:07.053Z,100442.66
2023-04-18T17:26:35.809Z,100433.56
2023-04-18T17:29:04.343Z,100449.06
2023-04-18T17:31:32.232Z,100442.75
2023-04-18T17:34:00.753Z,100442.44
2023-04-18T17:36:28.308Z,100450.84
2023-04-18T17:38:56.349Z,100447.53
2023-04-18T17:41:24.417Z,100456.38
2023-04-18T17:43:51.954Z,100447.34
2023-04-18T17:46:19.686Z,100449.56
2023-04-18T17:48:47.829Z,100451.94
2023-04-18T17:51:19.349Z,100447.09
2023-04-18T17:53:47.609Z,100447.28
2023-04-18T17:56:15.153Z,100450.00
2023-04-18T17:58:43.208Z,100441.59
2023-04-18T18:01:18.886Z,100448.56
2023-04-18T18:03:48.251Z,100444.53
2023-04-18T18:06:16.309Z,100448.44
2023-04-18T18:08:44.238Z,100453.78
2023-04-18T18:11:12.265Z,100444.25
2023-04-18T18:13:40.052Z,100448.84
2023-04-18T18:16:08.776Z,100437.37
2023-04-18T18:18:37.243Z,100446.72
2023-04-18T18:21:04.999Z,100445.00
2023-04-18T18:23:32.570Z,100438.62
2023-04-18T18:26:00.732Z,100446.50
2023-04-18T18:28:28.923Z,100440.50
2023-04-18T18:30:56.709Z,100450.84
2023-04-18T18:33:24.439Z,100442.47
2023-04-18T18:35:52.009Z,100442.72
2023-04-18T18:38:20.070Z,100442.81
2023-04-18T18:40:48.021Z,100445.19
2023-04-18T18:43:15.850Z,100445.34
2023-04-18T18:45:43.805Z,100439.47
2023-04-18T18:48:12.077Z,100450.25
2023-04-18T18:50:41.844Z,100445.69
2023-04-18T18:53:10.061Z,100446.81
2023-04-18T18:55:38.852Z,100440.63
2023-04-18T18:58:07.965Z,100447.91
2023-04-18T19:00:35.788Z,100455.50
2023-04-18T19:03:04.149Z,100452.94
2023-04-18T19:05:32.116Z,100450.63
2023-04-18T19:08:03.973Z,100445.28
2023-04-18T19:10:31.762Z,100452.78
2023-04-18T19:13:00.393Z,100456.28
2023-04-18T19:15:28.689Z,100461.38
2023-04-18T19:17:57.647Z,100462.09
2023-04-18T19:20:27.531Z,100459.59
2023-04-18T19:22:56.941Z,100451.78
2023-04-18T19:25:25.223Z,100454.03
2023-04-18T19:27:52.941Z,100458.50
2023-04-18T19:30:21.238Z,100462.78
2023-04-18T19:32:49.126Z,100449.84
2023-04-18T19:35:17.058Z,100464.97
2023-04-18T19:37:45.079Z,100455.41
2023-04-18T19:40:14.079Z,100461.00
2023-04-18T19:42:41.746Z,100458.41
2023-04-18T19:45:12.060Z,100459.69
2023-04-18T19:47:39.842Z,100456.22
2023-04-18T19:50:08.355Z,100457.84
2023-04-18T19:52:36.655Z,100451.38
2023-04-18T19:55:04.715Z,100457.84
2023-04-18T19:57:39.624Z,100462.47
2023-04-18T20:00:12.683Z,100458.88
2023-04-18T20:02:41.191Z,100458.72
2023-04-18T20:05:09.642Z,100457.09
2023-04-18T20:07:37.917Z,100455.91
2023-04-18T20:10:06.695Z,100454.91
2023-04-18T20:12:35.377Z,100461.63
2023-04-18T20:15:03.517Z,100452.09
2023-04-18T20:17:32.674Z,100445.56
2023-04-18T20:20:01.187Z,100451.41
2023-04-18T20:22:28.929Z,100458.53
2023-04-18T20:24:57.318Z,100458.38
2023-04-18T20:27:25.454Z,100451.66
2023-04-18T20:29:54.163Z,100449.88
2023-04-18T20:32:24.427Z,100457.19
2023-04-18T20:34:52.476Z,100448.50
2023-04-18T20:37:20.186Z,100453.06
2023-04-18T20:39:47.973Z,100453.00
2023-04-18T20:42:16.410Z,100445.97
2023-04-18T20:44:44.790Z,100452.38
2023-04-18T20:47:15.152Z,100452.56
2023-04-18T20:49:43.736Z,100448.41
2023-04-18T20:52:11.483Z,100442.47
2023-04-18T20:54:39.070Z,100448.50
2023-04-18T20:57:06.870Z,100454.88
2023-04-18T20:59:34.359Z,100452.50
2023-04-18T21:02:02.044Z,100445.69
2023-04-18T21:04:30.107Z,100438.94
2023-04-18T21:06:57.892Z,100448.22
2023-04-18T21:09:25.650Z,100443.19
2023-04-18T21:11:53.381Z,100442.66
2023-04-18T21:14:20.991Z,100449.00
2023-04-18T21:16:48.577Z,100455.34
2023-04-18T21:19:16.423Z,100448.56
2023-04-18T21:21:44.066Z,100442.53
2023-04-18T21:24:11.549Z,100446.25
2023-04-18T21:26:39.386Z,100432.28
2023-04-18T21:29:07.086Z,100441.13
2023-04-18T21:31:34.991Z,100448.19
2023-04-18T21:34:04.631Z,100442.06
2023-04-18T21:36:32.744Z,100429.34
2023-04-18T21:39:01.029Z,100437.19
2023-04-18T21:41:29.657Z,100438.13
2023-04-18T21:43:57.165Z,100439.97
2023-04-18T21:46:25.116Z,100427.66
2023-04-18T21:48:53.028Z,100437.41
2023-04-18T21:51:20.602Z,100429.75
2023-04-18T21:53:48.220Z,100430.66
2023-04-18T21:56:16.817Z,100442.97
2023-04-18T21:58:44.639Z,100431.22
2023-04-18T22:01:12.591Z,100437.94
2023-04-18T22:03:40.939Z,100444.22
2023-04-18T22:06:08.760Z,100439.03
2023-04-18T22:08:36.661Z,100443.22
2023-04-18T22:11:04.994Z,100436.31
2023-04-18T22:13:35.748Z,100439.97
2023-04-18T22:16:03.816Z,100438.03
2023-04-18T22:18:37.650Z,100435.47
2023-04-18T22:21:06.176Z,100429.12
2023-04-18T22:23:34.136Z,100428.97
2023-04-18T22:26:01.672Z,100427.13
2023-04-18T22:28:29.299Z,100425.41
2023-04-18T22:30:57.269Z,100421.16
2023-04-18T22:33:25.419Z,100432.22
2023-04-18T22:35:52.897Z,100425.12
2023-04-18T22:38:20.956Z,100427.88
2023-04-18T22:40:48.470Z,100427.97
2023-04-18T22:43:16.947Z,100417.75
2023-04-18T22:45:45.353Z,100425.34
2023-04-18T22:48:13.370Z,100420.22
2023-04-18T22:50:43.595Z,100427.44
2023-04-18T22:53:11.580Z,100415.25
2023-04-18T22:55:40.386Z,100412.56
2023-04-18T22:58:09.376Z,100403.84
2023-04-18T23:00:37.430Z,100409.94
2023-04-18T23:03:05.328Z,100406.53
2023-04-18T23:05:34.264Z,100408.31
2023-04-18T23:08:02.434Z,100398.88
2023-04-18T23:10:30.050Z,100402.19
2023-04-18T23:12:57.813Z,100392.63
2023-04-18T23:15:26.989Z,100392.66
2023-04-18T23:17:54.645Z,100396.37
2023-04-18T23:20:23.895Z,100395.63
2023-04-18T23:22:52.764Z,100395.06
2023-04-18T23:25:20.403Z,100389.75
2023-04-18T23:27:48.184Z,100390.81
2023-04-18T23:30:16.018Z,100379.75
2023-04-18T23:32:43.613Z,100385.94
2023-04-18T23:35:11.498Z,100384.91
2023-04-18T23:37:39.311Z,100384.06
2023-04-18T23:40:08.031Z,100384.06
2023-04-18T23:42:35.989Z,100374.50
2023-04-18T23:45:04.646Z,100375.25
2023-04-18T23:47:32.163Z,100378.91
2023-04-18T23:49:59.934Z,100374.62
2023-04-18T23:52:27.921Z,100371.25
2023-04-18T23:55:00.356Z,100376.56
2023-04-18T23:57:28.231Z,100374.97
2023-04-18T23:59:55.897Z,100363.59
